Time;durP1;ratioP1;P1;durP2;ratioP2;P2;SDS_P1;SDS_P2;PMS_P1;PMS_P2;Temp;Humidity;BMP_temperature;BMP_pressure;BME280_temperature;BME280_humidity;BME280_pressure;Samples;Min_cycle;Max_cycle;Signal;HPM_P1;HPM_P2
2021/04/30 00:00:35;;;;;;;5.77;5.27;;;;;;;;;;5010256;28;20284;-62
2021/04/30 00:03:01;;;;;;;5.77;5.37;;;;;;;;;;5011491;28;20606;-62
2021/04/30 00:05:29;;;;;;;6.00;5.50;;;;;;;;;;5009179;28;20271;-62
2021/04/30 00:07:56;;;;;;;5.80;5.30;;;;;;;;;;5004318;28;20323;-60
2021/04/30 00:10:22;;;;;;;6.10;5.60;;;;;;;;;;5009051;28;20209;-60
2021/04/30 00:12:48;;;;;;;6.57;5.97;;;;;;;;;;5009099;28;20185;-60
2021/04/30 00:15:14;;;;;;;6.63;6.00;;;;;;;;;;5005481;28;20235;-59
2021/04/30 00:17:40;;;;;;;5.70;5.30;;;;;;;;;;5001312;28;20628;-59
2021/04/30 00:20:07;;;;;;;6.20;5.70;;;;;;;;;;5006517;28;20805;-62
2021/04/30 00:22:33;;;;;;;5.90;5.40;;;;;;;;;;4999558;28;20259;-61
2021/04/30 00:24:59;;;;;;;5.67;5.27;;;;;;;;;;4999436;28;20185;-61
2021/04/30 00:27:25;;;;;;;6.30;5.40;;;;;;;;;;5009056;28;20268;-60
2021/04/30 00:29:51;;;;;;;5.53;5.10;;;;;;;;;;5003210;28;20208;-60
2021/04/30 00:32:17;;;;;;;5.90;5.43;;;;;;;;;;5005293;28;20193;-60
2021/04/30 00:34:43;;;;;;;6.60;6.00;;;;;;;;;;5003363;28;20215;-60
2021/04/30 00:37:10;;;;;;;6.17;5.60;;;;;;;;;;5002462;28;20220;-61
2021/04/30 00:39:36;;;;;;;6.53;5.80;;;;;;;;;;5007611;28;20216;-60
2021/04/30 00:42:02;;;;;;;6.47;5.97;;;;;;;;;;5001472;28;20181;-60
2021/04/30 00:44:29;;;;;;;6.50;6.00;;;;;;;;;;5009466;28;20193;-61
2021/04/30 00:46:55;;;;;;;7.27;6.67;;;;;;;;;;5004936;28;20189;-59
2021/04/30 00:49:21;;;;;;;6.23;5.73;;;;;;;;;;5010052;28;20680;-59
2021/04/30 00:51:47;;;;;;;6.50;6.00;;;;;;;;;;5009118;28;20201;-60
2021/04/30 00:54:13;;;;;;;8.33;7.07;;;;;;;;;;5003318;28;20200;-60
2021/04/30 00:56:39;;;;;;;6.60;6.07;;;;;;;;;;5009925;28;20212;-61
2021/04/30 00:59:05;;;;;;;6.70;6.10;;;;;;;;;;5003472;28;20207;-63
2021/04/30 01:01:32;;;;;;;8.03;6.87;;;;;;;;;;5007228;28;20181;-61
2021/04/30 01:03:58;;;;;;;7.03;6.50;;;;;;;;;;5009771;28;20200;-61
2021/04/30 01:06:24;;;;;;;7.20;6.60;;;;;;;;;;5000596;28;20193;-61
2021/04/30 01:08:50;;;;;;;7.47;6.80;;;;;;;;;;5002200;28;20197;-61
2021/04/30 01:11:16;;;;;;;8.00;7.30;;;;;;;;;;5008281;28;20189;-61
2021/04/30 01:13:42;;;;;;;7.40;6.77;;;;;;;;;;5001207;28;20188;-60
2021/04/30 01:16:08;;;;;;;7.40;6.80;;;;;;;;;;5001481;28;20216;-62
2021/04/30 01:18:44;;;;;;;7.83;7.23;;;;;;;;;;5008968;28;20193;-61
2021/04/30 01:21:11;;;;;;;7.53;6.83;;;;;;;;;;5003920;28;20542;-60
2021/04/30 01:23:53;;;;;;;7.80;7.17;;;;;;;;;;5009516;28;20652;-62
2021/04/30 01:26:20;;;;;;;7.83;7.10;;;;;;;;;;4999448;28;20220;-60
2021/04/30 01:28:46;;;;;;;7.93;7.33;;;;;;;;;;5006484;28;20733;-60
2021/04/30 01:31:13;;;;;;;8.00;7.30;;;;;;;;;;5002009;28;20204;-60
2021/04/30 01:33:39;;;;;;;7.70;7.10;;;;;;;;;;5004796;28;20201;-59
2021/04/30 01:36:05;;;;;;;8.43;7.73;;;;;;;;;;5008538;28;20218;-59
2021/04/30 01:38:31;;;;;;;7.43;6.83;;;;;;;;;;5013631;28;20227;-59
2021/04/30 01:40:57;;;;;;;7.90;7.27;;;;;;;;;;5011838;28;20259;-61
2021/04/30 01:43:25;;;;;;;8.20;7.43;;;;;;;;;;5007604;28;20204;-60
2021/04/30 01:45:52;;;;;;;8.23;7.53;;;;;;;;;;5006024;28;20689;-60
2021/04/30 01:48:20;;;;;;;8.77;8.07;;;;;;;;;;5005228;28;20191;-60
2021/04/30 01:50:46;;;;;;;7.90;7.30;;;;;;;;;;5007786;28;20205;-62
2021/04/30 01:53:14;;;;;;;7.90;7.20;;;;;;;;;;5007767;28;20265;-61
2021/04/30 01:55:41;;;;;;;8.73;7.60;;;;;;;;;;5013614;28;20200;-61
2021/04/30 01:58:07;;;;;;;8.03;7.33;;;;;;;;;;5010673;28;20191;-61
2021/04/30 02:00:33;;;;;;;8.50;7.80;;;;;;;;;;5018166;28;20224;-61
2021/04/30 02:03:00;;;;;;;8.13;7.53;;;;;;;;;;5006983;28;20186;-62
2021/04/30 02:05:27;;;;;;;8.67;7.87;;;;;;;;;;5006960;28;20190;-61
2021/04/30 02:07:53;;;;;;;8.47;7.67;;;;;;;;;;5010861;28;20197;-61
2021/04/30 02:10:23;;;;;;;10.87;8.07;;;;;;;;;;5004785;28;20657;-60
2021/04/30 02:12:50;;;;;;;9.00;8.10;;;;;;;;;;5014442;28;20180;-61
2021/04/30 02:15:18;;;;;;;8.97;8.17;;;;;;;;;;5007619;28;20193;-61
2021/04/30 02:17:44;;;;;;;9.20;7.87;;;;;;;;;;5003830;28;20463;-61
2021/04/30 02:20:10;;;;;;;9.13;8.23;;;;;;;;;;5006858;28;20242;-61
2021/04/30 02:22:37;;;;;;;9.10;8.20;;;;;;;;;;5008147;28;20783;-61
2021/04/30 02:25:04;;;;;;;9.07;8.17;;;;;;;;;;5002872;28;20197;-60
2021/04/30 02:27:30;;;;;;;10.40;9.50;;;;;;;;;;5009244;28;20232;-60
2021/04/30 02:29:56;;;;;;;9.53;8.73;;;;;;;;;;5010384;28;20220;-60
2021/04/30 02:32:22;;;;;;;9.33;8.43;;;;;;;;;;5005740;28;20551;-60
2021/04/30 02:34:48;;;;;;;9.63;8.83;;;;;;;;;;5008830;28;20198;-61
2021/04/30 02:37:15;;;;;;;8.73;8.03;;;;;;;;;;5008960;28;20227;-59
2021/04/30 02:39:41;;;;;;;9.57;8.77;;;;;;;;;;5011816;28;20676;-61
2021/04/30 02:42:07;;;;;;;10.00;9.00;;;;;;;;;;5006415;28;20196;-61
2021/04/30 02:44:33;;;;;;;9.83;8.83;;;;;;;;;;5007138;28;20276;-61
2021/04/30 02:46:59;;;;;;;9.67;8.87;;;;;;;;;;5011835;28;20264;-61
2021/04/30 02:49:38;;;;;;;9.80;8.90;;;;;;;;;;5011260;28;20205;-62
2021/04/30 02:52:04;;;;;;;9.70;8.87;;;;;;;;;;5004232;28;20529;-59
2021/04/30 02:54:30;;;;;;;9.50;8.70;;;;;;;;;;5003885;28;20203;-62
2021/04/30 02:56:56;;;;;;;10.43;9.43;;;;;;;;;;5013913;28;20205;-60
2021/04/30 02:59:22;;;;;;;9.43;8.63;;;;;;;;;;5005284;28;20590;-61
2021/04/30 03:01:48;;;;;;;10.73;9.73;;;;;;;;;;5007387;28;20192;-60
2021/04/30 03:04:14;;;;;;;10.43;9.43;;;;;;;;;;5011671;28;20188;-60
2021/04/30 03:06:40;;;;;;;10.33;9.33;;;;;;;;;;5004414;28;20247;-61
2021/04/30 03:09:06;;;;;;;9.90;8.87;;;;;;;;;;5002738;28;20209;-60
2021/04/30 03:11:32;;;;;;;10.27;9.37;;;;;;;;;;5008280;28;20186;-61
2021/04/30 03:13:58;;;;;;;10.23;9.17;;;;;;;;;;5008249;28;20199;-61
2021/04/30 03:16:25;;;;;;;10.40;9.40;;;;;;;;;;5004624;28;20684;-60
2021/04/30 03:18:51;;;;;;;10.23;9.07;;;;;;;;;;5003742;28;20216;-61
2021/04/30 03:21:17;;;;;;;10.10;9.10;;;;;;;;;;5009398;28;20266;-61
2021/04/30 03:23:43;;;;;;;9.10;8.30;;;;;;;;;;5003419;28;20655;-61
2021/04/30 03:26:09;;;;;;;9.27;8.47;;;;;;;;;;4982340;28;635981;-61
2021/04/30 03:28:35;;;;;;;9.77;8.87;;;;;;;;;;5004789;28;20219;-60
2021/04/30 03:31:01;;;;;;;9.20;8.40;;;;;;;;;;5004575;28;20264;-61
2021/04/30 03:33:27;;;;;;;9.73;8.83;;;;;;;;;;5008034;28;20724;-62
2021/04/30 03:35:53;;;;;;;9.80;9.00;;;;;;;;;;5007850;28;20201;-61
2021/04/30 03:38:19;;;;;;;9.30;8.50;;;;;;;;;;5000585;28;20193;-61
2021/04/30 03:40:45;;;;;;;10.00;9.07;;;;;;;;;;5009884;28;20208;-61
2021/04/30 03:43:11;;;;;;;9.80;8.87;;;;;;;;;;5006441;28;20276;-59
2021/04/30 03:45:37;;;;;;;10.07;9.03;;;;;;;;;;5000859;28;20185;-60
2021/04/30 03:48:03;;;;;;;10.57;9.53;;;;;;;;;;5008058;28;20196;-60
2021/04/30 03:50:29;;;;;;;10.90;9.40;;;;;;;;;;4997219;28;20711;-62
2021/04/30 03:52:55;;;;;;;10.67;9.57;;;;;;;;;;5005728;28;20594;-59
2021/04/30 03:55:21;;;;;;;9.97;9.03;;;;;;;;;;5000973;28;20192;-62
2021/04/30 03:57:47;;;;;;;10.47;9.50;;;;;;;;;;5006399;28;20255;-60
2021/04/30 04:00:13;;;;;;;10.67;9.50;;;;;;;;;;5007153;28;20983;-62
2021/04/30 04:02:39;;;;;;;10.93;9.87;;;;;;;;;;5001838;28;20184;-62
2021/04/30 04:05:05;;;;;;;10.53;9.63;;;;;;;;;;5005658;28;20201;-61
2021/04/30 04:07:31;;;;;;;10.57;9.57;;;;;;;;;;5004772;28;20188;-62
2021/04/30 04:09:57;;;;;;;9.90;9.10;;;;;;;;;;5010116;28;20213;-62
2021/04/30 04:12:23;;;;;;;10.80;9.70;;;;;;;;;;5003567;28;20204;-60
2021/04/30 04:14:49;;;;;;;11.63;9.90;;;;;;;;;;5001539;28;20272;-61
2021/04/30 04:17:16;;;;;;;11.37;10.27;;;;;;;;;;5006370;28;20740;-62
2021/04/30 04:19:48;;;;;;;11.37;10.13;;;;;;;;;;5004618;28;20212;-62
2021/04/30 04:22:14;;;;;;;10.60;9.60;;;;;;;;;;4999632;28;20185;-60
2021/04/30 04:24:40;;;;;;;10.90;9.77;;;;;;;;;;5013160;28;20188;-62
2021/04/30 04:27:07;;;;;;;11.37;10.27;;;;;;;;;;5002943;28;20341;-61
2021/04/30 04:29:33;;;;;;;12.20;11.10;;;;;;;;;;5004390;28;20753;-62
2021/04/30 04:31:59;;;;;;;11.10;9.93;;;;;;;;;;4996134;28;20276;-60
2021/04/30 04:34:25;;;;;;;11.17;10.17;;;;;;;;;;5005035;28;20197;-61
2021/04/30 04:36:52;;;;;;;10.63;9.63;;;;;;;;;;5021284;28;20217;-62
2021/04/30 04:39:17;;;;;;;11.00;9.87;;;;;;;;;;5004859;28;20580;-62
2021/04/30 04:41:43;;;;;;;10.70;9.70;;;;;;;;;;5008306;28;20187;-62
2021/04/30 04:44:09;;;;;;;10.53;9.53;;;;;;;;;;5007079;28;20249;-62
2021/04/30 04:46:36;;;;;;;10.17;9.27;;;;;;;;;;4999454;28;20684;-62
2021/04/30 04:49:02;;;;;;;10.83;9.73;;;;;;;;;;5005106;28;20549;-63
2021/04/30 04:51:28;;;;;;;10.53;9.43;;;;;;;;;;4999015;28;20562;-63
2021/04/30 04:53:54;;;;;;;10.27;9.27;;;;;;;;;;4996150;28;20211;-62
2021/04/30 04:56:25;;;;;;;10.57;9.30;;;;;;;;;;5001453;28;20675;-62
2021/04/30 04:58:51;;;;;;;9.93;9.00;;;;;;;;;;4996867;28;20231;-62
2021/04/30 05:01:17;;;;;;;10.53;9.20;;;;;;;;;;5001562;28;20194;-63
2021/04/30 05:03:43;;;;;;;10.67;9.17;;;;;;;;;;5004857;28;20257;-62
2021/04/30 05:06:09;;;;;;;10.70;9.37;;;;;;;;;;5018964;28;20185;-63
2021/04/30 05:08:35;;;;;;;10.60;9.70;;;;;;;;;;5007043;28;21032;-63
2021/04/30 05:11:03;;;;;;;12.20;10.00;;;;;;;;;;5001684;28;20216;-63
2021/04/30 05:13:30;;;;;;;10.00;9.00;;;;;;;;;;4995464;28;20677;-61
2021/04/30 05:15:56;;;;;;;9.77;8.87;;;;;;;;;;4995955;28;20720;-62
2021/04/30 05:18:22;;;;;;;10.67;9.57;;;;;;;;;;4992810;28;20280;-62
2021/04/30 05:20:48;;;;;;;9.63;8.70;;;;;;;;;;4999450;28;20237;-62
2021/04/30 05:23:14;;;;;;;11.33;10.30;;;;;;;;;;4997418;28;20197;-63
2021/04/30 05:25:40;;;;;;;12.07;10.03;;;;;;;;;;5006718;28;20601;-61
2021/04/30 05:28:07;;;;;;;11.57;10.37;;;;;;;;;;4999360;28;20843;-62
2021/04/30 05:30:33;;;;;;;11.13;9.77;;;;;;;;;;4996029;28;20929;-62
2021/04/30 05:32:59;;;;;;;13.20;10.47;;;;;;;;;;5000122;28;20184;-61
2021/04/30 05:35:25;;;;;;;17.33;15.67;;;;;;;;;;5003871;28;20279;-62
2021/04/30 05:37:51;;;;;;;17.93;15.33;;;;;;;;;;5005046;28;20209;-62
2021/04/30 05:40:17;;;;;;;14.67;12.23;;;;;;;;;;4995562;28;20208;-62
2021/04/30 05:42:43;;;;;;;12.17;10.87;;;;;;;;;;4994848;28;20252;-62
2021/04/30 05:45:11;;;;;;;11.27;10.17;;;;;;;;;;5009880;28;20189;-62
2021/04/30 05:47:37;;;;;;;11.80;10.57;;;;;;;;;;4998841;28;20208;-62
2021/04/30 05:50:03;;;;;;;21.10;11.93;;;;;;;;;;4996617;28;20235;-61
2021/04/30 05:52:30;;;;;;;11.83;10.77;;;;;;;;;;5001546;28;20837;-61
2021/04/30 05:54:56;;;;;;;13.20;11.87;;;;;;;;;;4999065;28;20618;-61
2021/04/30 05:57:22;;;;;;;13.50;12.30;;;;;;;;;;4996403;28;20216;-62
2021/04/30 05:59:48;;;;;;;16.20;14.60;;;;;;;;;;4997269;28;20269;-62
2021/04/30 06:02:14;;;;;;;14.97;13.20;;;;;;;;;;5005327;28;20192;-61
2021/04/30 06:04:40;;;;;;;12.77;11.57;;;;;;;;;;4998977;28;20608;-63
2021/04/30 06:07:06;;;;;;;12.00;10.80;;;;;;;;;;4998806;28;20271;-63
2021/04/30 06:09:32;;;;;;;12.13;10.83;;;;;;;;;;5007506;28;20208;-61
2021/04/30 06:11:58;;;;;;;10.73;9.83;;;;;;;;;;4995408;28;20569;-62
2021/04/30 06:14:30;;;;;;;11.40;10.27;;;;;;;;;;5026687;28;20185;-61
2021/04/30 06:16:56;;;;;;;11.87;10.67;;;;;;;;;;4997242;28;20217;-61
2021/04/30 06:19:22;;;;;;;11.13;10.03;;;;;;;;;;5001223;28;20212;-61
2021/04/30 06:21:48;;;;;;;9.83;8.93;;;;;;;;;;5001502;28;20223;-62
2021/04/30 06:24:14;;;;;;;10.13;9.17;;;;;;;;;;5001429;28;20185;-62
2021/04/30 06:26:40;;;;;;;10.57;9.48;;;;;;;;;;5009480;28;20205;-62
2021/04/30 06:29:08;;;;;;;12.30;10.20;;;;;;;;;;5004607;28;20254;-62
2021/04/30 06:31:34;;;;;;;10.80;9.90;;;;;;;;;;5009734;28;20226;-62
2021/04/30 06:34:00;;;;;;;12.80;10.97;;;;;;;;;;5004458;28;20216;-62
2021/04/30 06:36:26;;;;;;;10.37;9.47;;;;;;;;;;5002307;28;20295;-62
2021/04/30 06:38:52;;;;;;;11.23;9.73;;;;;;;;;;5003149;28;22026;-62
2021/04/30 06:41:18;;;;;;;11.30;10.23;;;;;;;;;;5004111;28;20275;-61
2021/04/30 06:43:44;;;;;;;12.27;9.87;;;;;;;;;;4999466;28;20276;-62
2021/04/30 06:46:10;;;;;;;10.73;9.73;;;;;;;;;;5000638;28;20196;-62
2021/04/30 06:48:36;;;;;;;11.55;10.45;;;;;;;;;;5001544;28;20193;-62
2021/04/30 06:51:02;;;;;;;10.93;9.80;;;;;;;;;;5005800;28;20683;-61
2021/04/30 06:53:28;;;;;;;11.13;10.00;;;;;;;;;;5008190;28;20212;-62
2021/04/30 06:55:54;;;;;;;10.80;9.80;;;;;;;;;;4999663;28;20195;-63
2021/04/30 06:58:20;;;;;;;10.90;9.90;;;;;;;;;;5004124;28;20188;-63
2021/04/30 07:00:46;;;;;;;10.97;9.83;;;;;;;;;;5003914;28;20228;-61
2021/04/30 07:03:12;;;;;;;10.97;9.93;;;;;;;;;;5003999;28;20200;-61
2021/04/30 07:05:38;;;;;;;10.03;9.10;;;;;;;;;;4999522;28;20196;-61
2021/04/30 07:08:05;;;;;;;10.27;9.37;;;;;;;;;;5002739;28;20199;-62
2021/04/30 07:10:31;;;;;;;10.10;9.00;;;;;;;;;;5009208;28;20228;-63
2021/04/30 07:12:58;;;;;;;11.37;9.83;;;;;;;;;;5002132;28;20708;-63
2021/04/30 07:15:24;;;;;;;11.97;9.67;;;;;;;;;;5005459;28;20193;-64
2021/04/30 07:17:50;;;;;;;10.07;9.17;;;;;;;;;;5004492;28;20207;-62
2021/04/30 07:20:16;;;;;;;10.63;9.70;;;;;;;;;;5006080;28;20228;-63
2021/04/30 07:22:42;;;;;;;11.77;9.67;;;;;;;;;;5001256;28;20235;-62
2021/04/30 07:25:09;;;;;;;11.03;9.63;;;;;;;;;;5001332;28;20193;-63
2021/04/30 07:27:35;;;;;;;10.10;9.03;;;;;;;;;;5004364;28;20752;-63
2021/04/30 07:30:01;;;;;;;10.93;8.97;;;;;;;;;;5008855;28;20583;-62
2021/04/30 07:32:27;;;;;;;10.50;9.00;;;;;;;;;;5004859;28;20189;-62
2021/04/30 07:34:53;;;;;;;11.17;9.63;;;;;;;;;;5003948;28;20189;-64
2021/04/30 07:37:19;;;;;;;10.53;8.90;;;;;;;;;;5000185;28;20208;-60
2021/04/30 07:39:45;;;;;;;10.00;9.10;;;;;;;;;;5002896;28;20247;-63
2021/04/30 07:42:11;;;;;;;11.70;10.53;;;;;;;;;;5001536;28;20213;-62
2021/04/30 07:44:38;;;;;;;9.63;8.82;;;;;;;;;;5002961;28;20196;-63
2021/04/30 07:47:04;;;;;;;12.07;10.70;;;;;;;;;;5003198;28;20197;-63
2021/04/30 07:49:31;;;;;;;10.70;9.70;;;;;;;;;;5003178;28;20718;-62
2021/04/30 07:51:57;;;;;;;10.82;9.73;;;;;;;;;;4998089;28;20268;-62
2021/04/30 07:54:23;;;;;;;10.05;9.15;;;;;;;;;;5005293;28;20268;-62
2021/04/30 07:56:50;;;;;;;11.40;9.63;;;;;;;;;;4999519;28;20212;-62
2021/04/30 07:59:17;;;;;;;10.97;9.97;;;;;;;;;;5001738;28;20232;-62
2021/04/30 08:01:43;;;;;;;12.57;9.40;;;;;;;;;;5002166;28;20610;-62
2021/04/30 08:04:09;;;;;;;14.80;10.53;;;;;;;;;;4998360;28;20401;-62
2021/04/30 08:06:37;;;;;;;13.00;10.57;;;;;;;;;;5001170;28;20199;-61
2021/04/30 08:09:04;;;;;;;10.50;9.50;;;;;;;;;;5003596;28;20188;-62
2021/04/30 08:11:30;;;;;;;11.93;9.95;;;;;;;;;;5004773;28;20181;-62
2021/04/30 08:13:57;;;;;;;10.73;9.67;;;;;;;;;;5002615;28;20203;-62
2021/04/30 08:16:23;;;;;;;10.83;9.73;;;;;;;;;;5001187;28;20219;-62
2021/04/30 08:18:49;;;;;;;11.10;10.07;;;;;;;;;;5002273;28;20195;-61
2021/04/30 08:21:15;;;;;;;11.47;10.27;;;;;;;;;;5004774;28;20196;-61
2021/04/30 08:23:41;;;;;;;13.23;9.77;;;;;;;;;;5003634;28;20189;-62
2021/04/30 08:26:07;;;;;;;12.27;10.20;;;;;;;;;;5003621;28;20193;-61
2021/04/30 08:28:33;;;;;;;11.50;10.20;;;;;;;;;;5004683;28;20679;-63
2021/04/30 08:30:59;;;;;;;10.47;9.40;;;;;;;;;;5005028;28;20255;-61
2021/04/30 08:33:26;;;;;;;10.33;9.20;;;;;;;;;;5002682;28;20201;-63
2021/04/30 08:35:53;;;;;;;10.80;9.60;;;;;;;;;;5002345;28;20193;-61
2021/04/30 08:38:19;;;;;;;10.87;9.90;;;;;;;;;;5000287;28;20212;-62
2021/04/30 08:40:47;;;;;;;11.40;9.87;;;;;;;;;;4999387;28;20632;-62
2021/04/30 08:43:13;;;;;;;10.40;9.35;;;;;;;;;;4998666;28;20544;-62
2021/04/30 08:45:40;;;;;;;10.82;9.73;;;;;;;;;;5002425;28;20173;-62
2021/04/30 08:48:15;;;;;;;9.80;8.98;;;;;;;;;;4999299;28;20190;-63
2021/04/30 08:50:42;;;;;;;10.73;9.70;;;;;;;;;;4999394;28;20208;-62
2021/04/30 08:53:08;;;;;;;10.82;9.27;;;;;;;;;;5004423;28;20193;-63
2021/04/30 08:55:35;;;;;;;10.80;9.70;;;;;;;;;;5005497;28;20711;-61
2021/04/30 08:58:04;;;;;;;10.38;9.38;;;;;;;;;;5005608;28;20975;-63
2021/04/30 09:00:30;;;;;;;10.68;9.57;;;;;;;;;;4999427;28;20204;-63
2021/04/30 09:02:56;;;;;;;11.35;10.30;;;;;;;;;;5004697;28;20280;-62
2021/04/30 09:05:24;;;;;;;10.40;9.50;;;;;;;;;;4999285;28;20209;-62
2021/04/30 09:07:50;;;;;;;10.27;9.27;;;;;;;;;;5002119;28;20296;-62
2021/04/30 09:10:19;;;;;;;12.13;9.98;;;;;;;;;;5000215;28;20212;-64
2021/04/30 09:12:49;;;;;;;10.35;9.20;;;;;;;;;;5004984;28;20240;-61
2021/04/30 09:15:20;;;;;;;12.05;8.77;;;;;;;;;;4999562;28;20201;-61
2021/04/30 09:17:46;;;;;;;10.30;9.35;;;;;;;;;;4993745;28;20574;-62
2021/04/30 09:20:12;;;;;;;10.32;9.23;;;;;;;;;;4997686;28;20254;-63
2021/04/30 09:22:41;;;;;;;10.70;9.57;;;;;;;;;;4996953;28;20273;-61
2021/04/30 09:25:08;;;;;;;9.70;8.77;;;;;;;;;;5000447;28;20227;-62
2021/04/30 09:27:39;;;;;;;13.10;9.68;;;;;;;;;;4997914;28;20200;-61
2021/04/30 09:30:19;;;;;;;13.55;10.82;;;;;;;;;;4997994;28;20763;-62
2021/04/30 09:33:03;;;;;;;10.85;9.85;;;;;;;;;;5004229;28;20192;-62
2021/04/30 09:35:29;;;;;;;9.95;8.85;;;;;;;;;;4997926;28;20247;-61
2021/04/30 09:37:58;;;;;;;10.57;9.48;;;;;;;;;;4994511;28;21453;-63
2021/04/30 09:40:25;;;;;;;10.45;9.43;;;;;;;;;;4998370;28;20270;-63
2021/04/30 09:43:01;;;;;;;10.73;9.63;;;;;;;;;;5001573;28;20651;-62
2021/04/30 09:45:27;;;;;;;10.45;9.55;;;;;;;;;;4997666;28;20195;-62
2021/04/30 09:47:58;;;;;;;12.60;9.95;;;;;;;;;;4994624;28;20617;-61
2021/04/30 09:50:25;;;;;;;18.65;12.25;;;;;;;;;;4999160;28;20262;-61
2021/04/30 09:52:55;;;;;;;11.80;10.48;;;;;;;;;;4996473;28;20885;-62
2021/04/30 09:55:22;;;;;;;11.40;10.27;;;;;;;;;;5007085;28;20247;-63
2021/04/30 09:57:49;;;;;;;12.90;9.80;;;;;;;;;;5008369;28;20216;-61
2021/04/30 10:00:16;;;;;;;10.77;9.68;;;;;;;;;;5003288;28;20221;-63
2021/04/30 10:02:44;;;;;;;10.77;9.68;;;;;;;;;;5003097;28;20264;-62
2021/04/30 10:05:13;;;;;;;11.20;10.10;;;;;;;;;;5010472;28;20181;-62
2021/04/30 10:07:40;;;;;;;12.52;9.65;;;;;;;;;;5006663;28;20200;-61
2021/04/30 10:10:17;;;;;;;11.32;10.23;;;;;;;;;;5003074;28;20210;-62
2021/04/30 10:12:44;;;;;;;10.68;9.68;;;;;;;;;;5008320;28;20267;-61
2021/04/30 10:15:11;;;;;;;11.35;9.77;;;;;;;;;;5006204;28;20204;-61
2021/04/30 10:17:38;;;;;;;11.20;10.13;;;;;;;;;;5005485;28;20197;-62
2021/04/30 10:20:05;;;;;;;10.70;9.65;;;;;;;;;;5009006;28;20284;-62
2021/04/30 10:22:33;;;;;;;12.60;10.98;;;;;;;;;;5010473;28;20185;-62
2021/04/30 10:25:00;;;;;;;11.18;10.07;;;;;;;;;;5012819;28;20177;-62
2021/04/30 10:27:36;;;;;;;11.45;10.25;;;;;;;;;;5006805;28;20198;-61
2021/04/30 10:30:08;;;;;;;11.88;10.65;;;;;;;;;;5004028;28;20698;-61
2021/04/30 10:32:38;;;;;;;12.63;10.90;;;;;;;;;;4999747;28;20252;-62
2021/04/30 10:35:05;;;;;;;14.38;11.18;;;;;;;;;;5010957;28;20189;-63
2021/04/30 10:37:32;;;;;;;11.93;10.73;;;;;;;;;;5004661;28;20228;-63
2021/04/30 10:39:59;;;;;;;12.30;11.20;;;;;;;;;;5002692;28;20208;-64
2021/04/30 10:42:31;;;;;;;12.80;11.53;;;;;;;;;;5003676;28;20196;-61
2021/04/30 10:44:58;;;;;;;13.23;11.87;;;;;;;;;;5004453;28;20192;-62
2021/04/30 10:47:25;;;;;;;13.33;11.83;;;;;;;;;;5002851;28;20193;-64
2021/04/30 10:50:11;;;;;;;14.53;13.23;;;;;;;;;;5003431;28;20298;-63
2021/04/30 10:52:37;;;;;;;16.47;14.00;;;;;;;;;;5001505;28;20192;-62
2021/04/30 10:55:08;;;;;;;15.20;13.67;;;;;;;;;;5002592;28;20189;-62
2021/04/30 10:57:57;;;;;;;17.17;15.37;;;;;;;;;;5001849;28;20213;-62
2021/04/30 11:00:28;;;;;;;17.30;15.63;;;;;;;;;;5000195;28;20209;-63
2021/04/30 11:03:13;;;;;;;17.73;15.97;;;;;;;;;;5009175;28;20254;-63
2021/04/30 11:05:58;;;;;;;18.87;16.97;;;;;;;;;;5004209;28;20198;-63
2021/04/30 11:08:47;;;;;;;20.50;17.60;;;;;;;;;;5011262;28;20189;-62
2021/04/30 11:11:14;;;;;;;20.13;18.13;;;;;;;;;;5004905;28;20216;-62
2021/04/30 11:13:40;;;;;;;22.93;20.63;;;;;;;;;;5005319;28;20193;-63
2021/04/30 11:16:08;;;;;;;24.73;22.30;;;;;;;;;;5006013;28;20191;-63
2021/04/30 11:18:54;;;;;;;25.70;23.10;;;;;;;;;;5009869;28;20185;-61
2021/04/30 11:21:20;;;;;;;27.37;23.67;;;;;;;;;;5000843;28;20191;-62
2021/04/30 11:23:50;;;;;;;28.67;23.60;;;;;;;;;;5005896;28;20304;-62
2021/04/30 11:26:18;;;;;;;25.57;22.93;;;;;;;;;;5007976;28;20225;-63
2021/04/30 11:28:44;;;;;;;27.63;24.70;;;;;;;;;;5008280;28;20268;-62
2021/04/30 11:31:10;;;;;;;26.67;23.97;;;;;;;;;;5008667;28;20828;-65
2021/04/30 11:33:38;;;;;;;24.30;21.90;;;;;;;;;;5009262;28;20314;-62
2021/04/30 11:36:04;;;;;;;26.33;23.73;;;;;;;;;;5010651;28;20235;-62
2021/04/30 11:38:37;;;;;;;25.30;22.60;;;;;;;;;;5009160;28;20216;-62
2021/04/30 11:41:04;;;;;;;23.43;21.03;;;;;;;;;;5008800;28;20307;-62
2021/04/30 11:43:30;;;;;;;23.00;20.57;;;;;;;;;;5011949;28;20181;-63
2021/04/30 11:45:56;;;;;;;21.93;19.83;;;;;;;;;;5004782;28;20231;-63
2021/04/30 11:48:23;;;;;;;23.33;20.83;;;;;;;;;;4996333;28;20203;-64
2021/04/30 11:51:15;;;;;;;24.70;21.87;;;;;;;;;;5008776;28;20220;-62
2021/04/30 11:53:43;;;;;;;22.87;20.67;;;;;;;;;;5001621;28;20677;-61
2021/04/30 11:56:10;;;;;;;24.97;22.40;;;;;;;;;;5007751;28;20242;-62
2021/04/30 11:58:40;;;;;;;27.33;24.43;;;;;;;;;;5002966;28;20185;-63
2021/04/30 12:01:06;;;;;;;28.40;25.30;;;;;;;;;;5008806;28;20324;-62
2021/04/30 12:03:55;;;;;;;26.87;24.03;;;;;;;;;;5009706;28;20182;-63
2021/04/30 12:06:28;;;;;;;28.53;25.63;;;;;;;;;;5007068;28;20190;-62
2021/04/30 12:08:55;;;;;;;29.30;26.20;;;;;;;;;;5013180;28;20208;-62
2021/04/30 12:11:24;;;;;;;28.90;25.87;;;;;;;;;;5008180;28;20220;-63
2021/04/30 12:13:51;;;;;;;28.50;25.70;;;;;;;;;;5003570;28;20235;-63
2021/04/30 12:16:18;;;;;;;30.87;27.57;;;;;;;;;;5005788;28;20717;-63
2021/04/30 12:18:44;;;;;;;30.10;26.90;;;;;;;;;;5011028;28;20185;-63
2021/04/30 12:21:10;;;;;;;31.40;28.20;;;;;;;;;;5013031;28;20215;-62
2021/04/30 12:23:37;;;;;;;28.33;25.33;;;;;;;;;;5017684;28;20210;-63
2021/04/30 12:26:03;;;;;;;31.33;27.37;;;;;;;;;;5006245;28;20203;-63
2021/04/30 12:28:36;;;;;;;29.30;26.27;;;;;;;;;;5005683;28;20210;-62
2021/04/30 12:31:03;;;;;;;31.30;28.20;;;;;;;;;;5016118;28;20207;-64
2021/04/30 12:33:37;;;;;;;32.33;28.80;;;;;;;;;;5008917;28;20189;-63
2021/04/30 12:36:05;;;;;;;44.70;37.90;;;;;;;;;;5002754;28;20177;-64
2021/04/30 12:38:31;;;;;;;40.17;35.67;;;;;;;;;;5001882;28;20877;-65
2021/04/30 12:41:03;;;;;;;31.60;28.20;;;;;;;;;;4998510;28;20708;-65
2021/04/30 12:43:29;;;;;;;29.43;26.43;;;;;;;;;;5001216;28;20687;-65
2021/04/30 12:45:56;;;;;;;33.97;30.40;;;;;;;;;;5002208;28;20336;-64
2021/04/30 12:48:26;;;;;;;32.00;28.70;;;;;;;;;;5005950;28;20192;-65
2021/04/30 12:50:53;;;;;;;29.20;26.30;;;;;;;;;;4999383;28;20227;-64
2021/04/30 12:53:19;;;;;;;27.47;24.83;;;;;;;;;;5013377;28;20210;-65
2021/04/30 12:55:45;;;;;;;28.77;25.80;;;;;;;;;;5005294;28;20648;-64
2021/04/30 12:58:12;;;;;;;29.93;26.90;;;;;;;;;;5000040;28;20216;-63
2021/04/30 13:00:58;;;;;;;28.33;25.43;;;;;;;;;;5009351;28;20681;-64
2021/04/30 13:03:24;;;;;;;25.03;22.53;;;;;;;;;;5012131;28;20178;-64
2021/04/30 13:05:51;;;;;;;23.20;20.90;;;;;;;;;;5004655;28;20189;-63
2021/04/30 13:08:17;;;;;;;22.43;20.33;;;;;;;;;;5005553;28;20199;-63
2021/04/30 13:10:43;;;;;;;24.53;22.23;;;;;;;;;;5004552;28;20219;-64
2021/04/30 13:13:09;;;;;;;25.43;23.03;;;;;;;;;;5003454;28;20264;-63
2021/04/30 13:15:36;;;;;;;24.27;21.57;;;;;;;;;;5018586;28;20276;-64
2021/04/30 13:18:02;;;;;;;27.27;24.03;;;;;;;;;;5008642;28;20239;-64
2021/04/30 13:20:33;;;;;;;26.23;23.63;;;;;;;;;;5001290;28;20219;-64
2021/04/30 13:23:02;;;;;;;26.67;23.87;;;;;;;;;;5003245;28;20207;-62
2021/04/30 13:25:32;;;;;;;26.93;24.17;;;;;;;;;;5000961;28;20189;-63
2021/04/30 13:27:58;;;;;;;29.20;25.30;;;;;;;;;;5002931;28;20271;-62
2021/04/30 13:30:34;;;;;;;27.87;24.97;;;;;;;;;;5007683;28;20208;-62
2021/04/30 13:33:20;;;;;;;30.03;26.87;;;;;;;;;;5012468;28;20188;-63
2021/04/30 13:35:46;;;;;;;30.37;27.23;;;;;;;;;;5011107;28;20192;-63
2021/04/30 13:38:18;;;;;;;32.77;29.23;;;;;;;;;;5005945;28;20675;-64
2021/04/30 13:40:44;;;;;;;31.40;28.03;;;;;;;;;;5010892;28;20204;-65
2021/04/30 13:43:11;;;;;;;30.67;27.37;;;;;;;;;;5001737;28;20592;-63
2021/04/30 13:45:37;;;;;;;32.07;28.77;;;;;;;;;;5007593;28;20709;-64
2021/04/30 13:48:03;;;;;;;31.77;28.47;;;;;;;;;;5006581;28;20188;-62
2021/04/30 13:50:34;;;;;;;30.37;27.27;;;;;;;;;;5009905;28;20314;-63
2021/04/30 13:53:09;;;;;;;30.67;27.57;;;;;;;;;;5007683;28;20189;-62
2021/04/30 13:55:35;;;;;;;30.90;27.67;;;;;;;;;;5011070;28;20239;-63
2021/04/30 13:58:02;;;;;;;31.60;28.40;;;;;;;;;;5010249;28;20213;-62
2021/04/30 14:00:28;;;;;;;33.33;29.93;;;;;;;;;;5000987;28;20596;-65
2021/04/30 14:02:55;;;;;;;31.27;27.97;;;;;;;;;;4999642;28;20739;-64
2021/04/30 14:05:22;;;;;;;31.40;28.20;;;;;;;;;;5005681;28;20180;-63
2021/04/30 14:07:50;;;;;;;27.57;24.87;;;;;;;;;;5004597;28;20294;-64
2021/04/30 14:10:16;;;;;;;27.23;24.63;;;;;;;;;;5000862;28;20217;-64
2021/04/30 14:12:43;;;;;;;27.17;24.57;;;;;;;;;;5007397;28;20268;-65
2021/04/30 14:15:10;;;;;;;29.00;26.17;;;;;;;;;;4991513;28;20186;-65
2021/04/30 14:17:36;;;;;;;25.77;23.17;;;;;;;;;;4999400;28;20243;-64
2021/04/30 14:20:03;;;;;;;24.97;22.57;;;;;;;;;;5006091;28;20216;-63
2021/04/30 14:22:29;;;;;;;26.30;23.80;;;;;;;;;;5003590;28;20620;-63
2021/04/30 14:24:55;;;;;;;25.07;22.57;;;;;;;;;;5002048;28;20273;-65
2021/04/30 14:27:24;;;;;;;24.50;22.10;;;;;;;;;;5006542;28;21071;-64
2021/04/30 14:29:50;;;;;;;23.50;21.30;;;;;;;;;;5000316;28;20219;-64